createdAt,value
2023-03-10T00:01:27.065Z,79.10
2023-03-10T00:03:55.942Z,79.10
2023-03-10T00:06:26.439Z,79.30
2023-03-10T00:08:54.767Z,79.00
2023-03-10T00:11:22.852Z,79.10
2023-03-10T00:13:50.504Z,78.90
2023-03-10T00:16:21.081Z,78.80
2023-03-10T00:18:49.477Z,78.90
2023-03-10T00:21:22.599Z,78.70
2023-03-10T00:23:50.279Z,78.50
2023-03-10T00:26:19.881Z,78.40
2023-03-10T00:28:48.264Z,78.30
2023-03-10T00:31:19.342Z,78.60
2023-03-10T00:33:47.254Z,78.40
2023-03-10T00:36:22.975Z,78.30
2023-03-10T00:38:52.081Z,78.50
2023-03-10T00:41:25.940Z,78.50
2023-03-10T00:43:53.509Z,78.50
2023-03-10T00:46:21.602Z,78.80
2023-03-10T00:48:49.339Z,78.70
2023-03-10T00:51:21.125Z,78.40
2023-03-10T00:53:49.115Z,78.50
2023-03-10T00:56:22.535Z,78.80
2023-03-10T00:58:56.226Z,78.60
2023-03-10T01:01:29.952Z,78.50
2023-03-10T01:04:00.450Z,78.20
2023-03-10T01:06:28.414Z,78.40
2023-03-10T01:08:56.230Z,78.40
2023-03-10T01:11:26.599Z,78.40
2023-03-10T01:13:56.558Z,78.30
2023-03-10T01:16:24.282Z,78.10
2023-03-10T01:18:52.062Z,78.40
2023-03-10T01:21:26.848Z,78.50
2023-03-10T01:23:55.192Z,78.10
2023-03-10T01:26:23.040Z,78.10
2023-03-10T01:28:50.697Z,78.60
2023-03-10T01:31:19.013Z,78.10
2023-03-10T01:33:47.026Z,78.10
2023-03-10T01:36:20.345Z,78.50
2023-03-10T01:38:48.796Z,78.20
2023-03-10T01:41:17.883Z,77.70
2023-03-10T01:43:48.437Z,77.90
2023-03-10T01:46:24.911Z,78.10
2023-03-10T01:48:52.699Z,78.00
2023-03-10T01:51:21.140Z,78.40
2023-03-10T01:53:48.741Z,78.20
2023-03-10T01:56:17.021Z,78.40
2023-03-10T01:58:46.854Z,78.30
2023-03-10T02:01:16.667Z,78.50
2023-03-10T02:03:51.775Z,78.10
2023-03-10T02:06:21.981Z,78.20
2023-03-10T02:08:58.802Z,78.30
2023-03-10T02:11:26.517Z,78.40
2023-03-10T02:13:55.069Z,78.10
2023-03-10T02:16:23.379Z,78.00
2023-03-10T02:18:51.241Z,78.10
2023-03-10T02:21:32.220Z,78.00
2023-03-10T02:24:41.308Z,78.10
2023-03-10T02:27:16.199Z,78.20
2023-03-10T02:29:59.374Z,78.30
2023-03-10T02:32:31.137Z,78.20
2023-03-10T02:34:58.803Z,78.20
2023-03-10T02:37:30.252Z,78.10
2023-03-10T02:39:58.884Z,78.20
2023-03-10T02:42:34.675Z,78.70
2023-03-10T02:45:03.961Z,78.50
2023-03-10T02:47:31.533Z,78.50
2023-03-10T02:49:59.046Z,78.50
2023-03-10T02:52:38.561Z,78.60
2023-03-10T02:55:06.748Z,78.60
2023-03-10T02:57:34.282Z,78.70
2023-03-10T03:00:02.048Z,78.50
2023-03-10T03:02:31.464Z,78.50
2023-03-10T03:04:59.115Z,78.40
2023-03-10T03:07:28.010Z,78.50
2023-03-10T03:09:55.728Z,78.50
2023-03-10T03:12:23.284Z,78.50
2023-03-10T03:14:50.795Z,78.50
2023-03-10T03:17:18.348Z,78.40
2023-03-10T03:19:45.902Z,78.60
2023-03-10T03:22:13.488Z,78.60
2023-03-10T03:24:41.085Z,78.50
2023-03-10T03:27:08.715Z,79.10
2023-03-10T03:29:36.345Z,79.20
2023-03-10T03:32:07.293Z,78.70
2023-03-10T03:34:34.902Z,78.50
2023-03-10T03:37:02.532Z,78.70
2023-03-10T03:39:30.106Z,78.60
2023-03-10T03:41:57.677Z,78.60
2023-03-10T03:44:25.244Z,78.60
2023-03-10T03:46:52.855Z,78.50
2023-03-10T03:49:20.404Z,78.60
2023-03-10T03:51:48.329Z,78.60
2023-03-10T03:54:15.945Z,78.60
2023-03-10T03:56:43.563Z,78.50
2023-03-10T03:59:11.111Z,78.70
2023-03-10T04:01:38.669Z,78.90
2023-03-10T04:04:06.243Z,78.90
2023-03-10T04:06:33.807Z,79.00
2023-03-10T04:09:01.582Z,78.90
2023-03-10T04:11:29.192Z,79.00
2023-03-10T04:13:56.827Z,79.00
2023-03-10T04:16:24.358Z,79.40
2023-03-10T04:18:52.119Z,79.10
2023-03-10T04:21:19.715Z,79.10
2023-03-10T04:23:47.269Z,78.90
2023-03-10T04:26:14.861Z,79.10
2023-03-10T04:28:42.425Z,79.00
2023-03-10T04:31:16.927Z,79.10
2023-03-10T04:33:44.792Z,79.10
2023-03-10T04:36:12.422Z,79.30
2023-03-10T04:38:40.453Z,79.20
2023-03-10T04:41:09.734Z,79.30
2023-03-10T04:43:37.757Z,79.40
2023-03-10T04:46:06.752Z,79.50
2023-03-10T04:48:34.945Z,79.20
2023-03-10T04:51:06.083Z,79.20
2023-03-10T04:53:34.455Z,79.20
2023-03-10T04:56:03.577Z,79.30
2023-03-10T04:58:31.299Z,79.50
2023-03-10T05:01:03.589Z,79.40
2023-03-10T05:03:31.337Z,79.50
2023-03-10T05:05:59.495Z,79.50
2023-03-10T05:08:27.146Z,79.50
2023-03-10T05:10:54.741Z,79.50
2023-03-10T05:13:22.274Z,79.60
2023-03-10T05:15:49.800Z,79.50
2023-03-10T05:18:17.361Z,79.70
2023-03-10T05:20:44.946Z,79.60
2023-03-10T05:23:12.493Z,79.70
2023-03-10T05:25:40.719Z,79.80
2023-03-10T05:28:10.588Z,79.80
2023-03-10T05:30:38.818Z,79.80
2023-03-10T05:33:06.912Z,79.80
2023-03-10T05:35:34.602Z,79.80
2023-03-10T05:38:02.196Z,79.70
2023-03-10T05:40:29.766Z,79.80
2023-03-10T05:42:57.273Z,79.80
2023-03-10T05:45:24.990Z,79.70
2023-03-10T05:47:52.521Z,79.60
2023-03-10T05:50:20.289Z,79.70
2023-03-10T05:52:47.840Z,79.70
2023-03-10T05:55:18.590Z,79.90
2023-03-10T05:57:46.982Z,79.80
2023-03-10T06:00:15.863Z,79.80
2023-03-10T06:02:43.452Z,79.90
2023-03-10T06:05:14.470Z,79.80
2023-03-10T06:07:42.442Z,79.80
2023-03-10T06:10:10.805Z,79.90
2023-03-10T06:12:38.526Z,79.90
2023-03-10T06:15:07.001Z,79.90
2023-03-10T06:17:34.543Z,80.00
2023-03-10T06:20:02.500Z,80.00
2023-03-10T06:22:31.371Z,80.00
2023-03-10T06:24:59.851Z,80.00
2023-03-10T06:27:27.423Z,80.00
2023-03-10T06:29:55.012Z,80.00
2023-03-10T06:32:22.858Z,80.00
2023-03-10T06:34:50.525Z,80.00
2023-03-10T06:37:18.211Z,80.00
2023-03-10T06:39:45.856Z,80.10
2023-03-10T06:42:14.639Z,80.10
2023-03-10T06:44:43.932Z,80.10
2023-03-10T06:47:11.550Z,80.10
2023-03-10T06:49:39.782Z,80.20
2023-03-10T06:52:09.578Z,80.20
2023-03-10T06:54:37.570Z,80.20
2023-03-10T06:57:05.850Z,80.30
2023-03-10T06:59:33.769Z,80.30
2023-03-10T07:02:01.692Z,80.30
2023-03-10T07:04:30.030Z,80.40
2023-03-10T07:06:58.191Z,80.40
2023-03-10T07:09:26.002Z,80.50
2023-03-10T07:11:54.150Z,80.50
2023-03-10T07:14:22.687Z,80.50
2023-03-10T07:16:50.297Z,80.60
2023-03-10T07:19:17.929Z,80.60
2023-03-10T07:21:45.545Z,80.60
2023-03-10T07:24:13.231Z,80.70
2023-03-10T07:26:40.948Z,80.70
2023-03-10T07:29:08.562Z,80.80
2023-03-10T07:31:37.451Z,80.70
2023-03-10T07:34:05.101Z,80.80
2023-03-10T07:36:32.851Z,80.90
2023-03-10T07:39:00.590Z,81.00
2023-03-10T07:41:28.515Z,81.10
2023-03-10T07:43:56.146Z,81.30
2023-03-10T07:46:25.395Z,81.10
2023-03-10T07:48:54.161Z,81.30
2023-03-10T07:51:21.858Z,81.30
2023-03-10T07:53:49.472Z,81.30
2023-03-10T07:56:17.140Z,81.50
2023-03-10T07:58:44.877Z,81.60
2023-03-10T08:01:21.963Z,81.90
2023-03-10T08:03:50.413Z,82.80
2023-03-10T08:06:20.703Z,82.00
2023-03-10T08:08:48.376Z,82.20
2023-03-10T08:11:16.461Z,82.40
2023-03-10T08:13:46.474Z,82.00
2023-03-10T08:16:15.976Z,82.30
2023-03-10T08:18:44.111Z,82.20
2023-03-10T08:21:12.230Z,82.10
2023-03-10T08:23:40.335Z,82.40
2023-03-10T08:26:11.346Z,82.90
2023-03-10T08:28:39.093Z,83.50
2023-03-10T08:31:24.607Z,82.60
2023-03-10T08:33:56.285Z,82.40
2023-03-10T08:36:26.409Z,82.80
2023-03-10T08:38:55.863Z,83.10
2023-03-10T08:41:26.641Z,82.90
2023-03-10T08:43:56.318Z,82.80
2023-03-10T08:46:25.498Z,82.80
2023-03-10T08:48:53.945Z,82.80
2023-03-10T08:51:23.165Z,82.70
2023-03-10T08:53:52.006Z,82.60
2023-03-10T08:56:21.048Z,82.70
2023-03-10T08:58:48.986Z,82.60
2023-03-10T09:01:17.807Z,82.70
2023-03-10T09:03:46.419Z,82.60
2023-03-10T09:06:15.299Z,82.90
2023-03-10T09:08:43.448Z,82.80
2023-03-10T09:11:16.829Z,82.70
2023-03-10T09:13:44.385Z,82.70
2023-03-10T09:16:13.769Z,82.70
2023-03-10T09:18:41.815Z,82.90
2023-03-10T09:21:12.802Z,82.80
2023-03-10T09:23:43.750Z,82.90
2023-03-10T09:26:11.492Z,83.00
2023-03-10T09:28:39.107Z,83.10
2023-03-10T09:31:08.121Z,83.10
2023-03-10T09:33:36.245Z,83.10
2023-03-10T09:36:07.850Z,83.00
2023-03-10T09:38:36.711Z,83.00
2023-03-10T09:41:25.559Z,83.00
2023-03-10T09:44:02.793Z,83.10
2023-03-10T09:46:46.896Z,83.10
2023-03-10T09:49:34.145Z,83.00
2023-03-10T09:52:24.145Z,83.10
2023-03-10T09:55:06.717Z,83.10
2023-03-10T09:57:36.522Z,83.10
2023-03-10T10:00:11.730Z,83.10
2023-03-10T10:02:47.840Z,83.20
2023-03-10T10:05:43.062Z,83.10
2023-03-10T10:08:22.043Z,83.20
2023-03-10T10:10:58.797Z,83.20
2023-03-10T10:13:30.807Z,83.20
2023-03-10T10:16:28.185Z,83.10
2023-03-10T10:19:04.146Z,83.20
2023-03-10T10:21:42.361Z,83.10
2023-03-10T10:24:10.927Z,83.30
2023-03-10T10:26:38.450Z,83.30
2023-03-10T10:29:20.645Z,83.20
2023-03-10T10:32:05.291Z,83.30
2023-03-10T10:34:34.042Z,83.30
2023-03-10T10:37:02.443Z,83.30
2023-03-10T10:39:34.262Z,83.40
2023-03-10T10:42:27.762Z,83.30
2023-03-10T10:45:06.705Z,83.40
2023-03-10T10:47:37.947Z,83.30
2023-03-10T10:50:20.461Z,83.20
2023-03-10T10:52:50.918Z,83.30
2023-03-10T10:55:34.631Z,83.40
2023-03-10T10:58:06.126Z,83.40
2023-03-10T11:00:37.290Z,83.50
2023-03-10T11:03:34.983Z,83.50
2023-03-10T11:06:14.449Z,83.40
2023-03-10T11:08:45.328Z,83.50
2023-03-10T11:11:24.888Z,83.80
2023-03-10T11:14:03.244Z,84.10
2023-03-10T11:17:00.341Z,84.20
2023-03-10T11:19:33.939Z,84.40
2023-03-10T11:22:12.195Z,84.00
2023-03-10T11:25:06.911Z,83.90
2023-03-10T11:27:44.637Z,84.00
2023-03-10T11:30:18.304Z,83.90
2023-03-10T11:33:25.155Z,83.90
2023-03-10T11:36:24.996Z,84.10
2023-03-10T11:39:00.497Z,84.30
2023-03-10T11:41:33.898Z,84.10
2023-03-10T11:44:24.345Z,84.10
2023-03-10T11:47:05.644Z,81.80
2023-03-10T11:49:38.246Z,82.80
2023-03-10T11:52:16.256Z,82.90
2023-03-10T11:54:48.710Z,83.20
2023-03-10T11:57:19.612Z,83.50
2023-03-10T11:59:56.877Z,83.50
2023-03-10T12:02:46.085Z,83.60
2023-03-10T12:05:26.187Z,83.30
2023-03-10T12:08:00.951Z,83.40
2023-03-10T12:10:29.741Z,83.50
2023-03-10T12:12:58.736Z,83.60
2023-03-10T12:15:36.478Z,83.60
2023-03-10T12:18:05.786Z,83.70
2023-03-10T12:20:35.724Z,83.60
2023-03-10T12:23:10.698Z,83.70
2023-03-10T12:25:38.723Z,83.70
2023-03-10T12:28:18.634Z,83.70
2023-03-10T12:31:06.863Z,83.80
2023-03-10T12:33:34.758Z,83.70
2023-03-10T12:36:16.938Z,83.70
2023-03-10T12:38:47.056Z,83.60
2023-03-10T12:41:27.355Z,83.80
2023-03-10T12:44:27.859Z,83.70
2023-03-10T12:47:26.758Z,83.90
2023-03-10T12:50:33.216Z,83.80
2023-03-10T12:53:25.136Z,83.90
2023-03-10T12:56:13.874Z,84.00
2023-03-10T12:58:49.654Z,84.00
2023-03-10T13:01:22.884Z,84.00
2023-03-10T13:03:53.957Z,84.00
2023-03-10T13:06:34.288Z,84.00
2023-03-10T13:09:16.577Z,84.00
2023-03-10T13:11:58.020Z,84.00
2023-03-10T13:14:36.166Z,84.00
2023-03-10T13:17:04.283Z,84.00
2023-03-10T13:19:37.427Z,84.00
2023-03-10T13:22:05.404Z,84.00
2023-03-10T13:24:42.640Z,84.00
2023-03-10T13:27:24.694Z,84.00
2023-03-10T13:30:20.300Z,84.00
2023-03-10T13:33:00.015Z,84.00
2023-03-10T13:35:39.182Z,83.70
2023-03-10T13:38:10.960Z,83.80
2023-03-10T13:40:45.296Z,83.80
2023-03-10T13:43:32.527Z,83.70
2023-03-10T13:46:01.260Z,83.60
2023-03-10T13:48:30.963Z,83.70
2023-03-10T13:51:32.531Z,83.60
2023-03-10T13:54:19.719Z,83.50
2023-03-10T13:56:49.040Z,83.70
2023-03-10T13:59:25.772Z,83.70
2023-03-10T14:01:56.571Z,83.60
2023-03-10T14:04:44.310Z,83.70
2023-03-10T14:07:14.155Z,83.70
2023-03-10T14:09:41.824Z,83.70
2023-03-10T14:12:10.866Z,83.70
2023-03-10T14:14:44.943Z,83.60
2023-03-10T14:17:35.251Z,83.50
2023-03-10T14:20:03.016Z,83.60
2023-03-10T14:22:38.206Z,84.20
2023-03-10T14:25:17.237Z,83.40
2023-03-10T14:27:53.724Z,83.50
2023-03-10T14:30:29.875Z,83.70
2023-03-10T14:32:59.134Z,83.40
2023-03-10T14:35:28.256Z,83.60
2023-03-10T14:37:56.454Z,83.70
2023-03-10T14:40:25.774Z,83.60
2023-03-10T14:42:55.209Z,83.50
2023-03-10T14:45:38.852Z,83.60
2023-03-10T14:48:19.268Z,83.50
2023-03-10T14:50:47.933Z,83.40
2023-03-10T14:53:18.755Z,83.30
2023-03-10T14:55:48.626Z,83.50
2023-03-10T14:58:21.396Z,83.40
2023-03-10T15:00:49.955Z,83.50
2023-03-10T15:03:18.045Z,83.40
2023-03-10T15:05:49.073Z,83.40
2023-03-10T15:08:18.053Z,83.30
2023-03-10T15:10:48.678Z,83.40
2023-03-10T15:13:18.587Z,83.30
2023-03-10T15:15:48.372Z,83.30
2023-03-10T15:18:21.320Z,83.20
2023-03-10T15:20:53.930Z,83.10
2023-03-10T15:23:22.777Z,83.30
2023-03-10T15:25:50.462Z,83.10
2023-03-10T15:28:18.474Z,83.10
2023-03-10T15:30:47.320Z,83.00
2023-03-10T15:33:15.757Z,83.00
2023-03-10T15:35:44.223Z,83.00
2023-03-10T15:38:14.516Z,83.00
2023-03-10T15:40:42.372Z,82.70
2023-03-10T15:43:10.133Z,83.10
2023-03-10T15:45:41.535Z,82.60
2023-03-10T15:48:10.146Z,82.30
2023-03-10T15:50:41.241Z,82.30
2023-03-10T15:53:09.360Z,81.80
2023-03-10T15:55:41.726Z,82.00
2023-03-10T15:58:12.643Z,82.10
2023-03-10T16:00:42.527Z,82.10
2023-03-10T16:03:11.525Z,81.70
2023-03-10T16:05:39.520Z,81.60
2023-03-10T16:08:07.136Z,81.70
2023-03-10T16:10:40.260Z,81.70
2023-03-10T16:13:08.185Z,81.80
2023-03-10T16:15:39.663Z,81.60
2023-03-10T16:18:07.177Z,81.80
2023-03-10T16:20:35.060Z,81.80
2023-03-10T16:23:02.654Z,81.70
2023-03-10T16:25:30.662Z,81.70
2023-03-10T16:27:58.228Z,81.70
2023-03-10T16:30:26.019Z,81.80
2023-03-10T16:32:53.743Z,81.50
2023-03-10T16:35:21.402Z,81.60
2023-03-10T16:37:48.962Z,81.60
2023-03-10T16:40:16.850Z,81.40
2023-03-10T16:42:45.833Z,81.70
2023-03-10T16:45:13.754Z,81.60
2023-03-10T16:47:42.489Z,81.70
2023-03-10T16:50:12.971Z,81.50
2023-03-10T16:52:42.809Z,81.80
2023-03-10T16:55:17.464Z,81.70
2023-03-10T16:57:48.144Z,81.70
2023-03-10T17:00:21.216Z,81.70
2023-03-10T17:02:49.502Z,81.40
2023-03-10T17:05:20.315Z,81.40
2023-03-10T17:07:55.552Z,81.70
2023-03-10T17:10:24.269Z,81.80
2023-03-10T17:12:51.962Z,81.80
2023-03-10T17:15:19.722Z,81.80
2023-03-10T17:17:47.364Z,81.90
2023-03-10T17:20:15.187Z,82.00
2023-03-10T17:22:42.733Z,81.70
2023-03-10T17:25:14.283Z,81.80
2023-03-10T17:27:43.306Z,82.20
2023-03-10T17:30:12.123Z,81.60
2023-03-10T17:32:39.847Z,81.60
2023-03-10T17:35:08.129Z,82.00
2023-03-10T17:37:35.761Z,81.50
2023-03-10T17:40:03.429Z,81.00
2023-03-10T17:42:31.223Z,81.30
2023-03-10T17:44:58.864Z,81.30
2023-03-10T17:47:26.519Z,81.00
2023-03-10T17:49:57.317Z,81.60
2023-03-10T17:52:25.003Z,81.70
2023-03-10T17:54:52.597Z,82.00
2023-03-10T17:57:20.197Z,81.30
2023-03-10T17:59:47.784Z,81.50
2023-03-10T18:02:15.701Z,81.40
2023-03-10T18:04:46.869Z,81.50
2023-03-10T18:07:14.662Z,81.10
2023-03-10T18:09:42.231Z,81.40
2023-03-10T18:12:12.801Z,81.00
2023-03-10T18:14:40.423Z,81.20
2023-03-10T18:17:08.052Z,81.10
2023-03-10T18:19:35.651Z,81.20
2023-03-10T18:22:05.906Z,81.10
2023-03-10T18:24:33.463Z,81.00
2023-03-10T18:27:02.101Z,80.80
2023-03-10T18:29:29.693Z,80.80
2023-03-10T18:31:57.298Z,81.70
2023-03-10T18:34:24.882Z,81.60
2023-03-10T18:36:52.521Z,81.30
2023-03-10T18:39:20.095Z,80.80
2023-03-10T18:41:47.662Z,81.20
2023-03-10T18:44:15.196Z,80.80
2023-03-10T18:46:42.855Z,81.20
2023-03-10T18:49:10.582Z,81.10
2023-03-10T18:51:38.144Z,81.10
2023-03-10T18:54:06.984Z,81.30
2023-03-10T18:56:35.006Z,81.20
2023-03-10T18:59:02.843Z,81.20
2023-03-10T19:01:30.537Z,81.40
2023-03-10T19:03:58.212Z,81.30
2023-03-10T19:06:31.303Z,81.30
2023-03-10T19:08:59.155Z,81.70
2023-03-10T19:11:28.113Z,81.20
2023-03-10T19:13:55.893Z,81.50
2023-03-10T19:16:23.499Z,81.20
2023-03-10T19:18:51.220Z,81.20
2023-03-10T19:21:18.784Z,81.60
2023-03-10T19:23:46.731Z,81.20
2023-03-10T19:26:17.596Z,81.40
2023-03-10T19:28:48.026Z,80.90
2023-03-10T19:31:16.372Z,81.10
2023-03-10T19:33:46.704Z,81.40
2023-03-10T19:36:15.335Z,81.50
2023-03-10T19:38:44.330Z,81.60
2023-03-10T19:41:14.905Z,81.50
2023-03-10T19:43:42.970Z,81.30
2023-03-10T19:46:12.421Z,81.20
2023-03-10T19:48:40.798Z,81.10
2023-03-10T19:51:09.869Z,81.10
2023-03-10T19:53:37.476Z,81.00
2023-03-10T19:56:10.361Z,81.00
2023-03-10T19:58:38.896Z,81.10
2023-03-10T20:01:12.083Z,81.10
2023-03-10T20:03:39.818Z,81.20
2023-03-10T20:06:07.678Z,81.20
2023-03-10T20:08:35.480Z,81.20
2023-03-10T20:11:03.725Z,81.30
2023-03-10T20:13:33.066Z,81.20
2023-03-10T20:16:00.892Z,81.30
2023-03-10T20:18:28.545Z,81.20
2023-03-10T20:20:58.990Z,81.20
2023-03-10T20:23:26.589Z,81.20
2023-03-10T20:26:08.600Z,81.20
2023-03-10T20:28:37.894Z,81.20
2023-03-10T20:31:06.269Z,81.80
2023-03-10T20:33:35.490Z,81.20
2023-03-10T20:36:03.101Z,81.20
2023-03-10T20:38:30.781Z,81.20
2023-03-10T20:40:58.353Z,81.30
2023-03-10T20:43:26.070Z,81.30
2023-03-10T20:45:54.567Z,81.30
2023-03-10T20:48:22.902Z,81.30
2023-03-10T20:50:57.121Z,81.40
2023-03-10T20:53:25.420Z,81.40
2023-03-10T20:55:53.232Z,81.40
2023-03-10T20:58:21.387Z,81.50
2023-03-10T21:00:49.513Z,81.50
2023-03-10T21:03:17.230Z,81.50
2023-03-10T21:05:44.987Z,81.60
2023-03-10T21:08:12.545Z,81.60
2023-03-10T21:10:40.322Z,81.60
2023-03-10T21:13:08.037Z,81.70
2023-03-10T21:15:35.611Z,81.70
2023-03-10T21:18:03.196Z,81.80
2023-03-10T21:20:30.772Z,81.80
2023-03-10T21:22:58.910Z,82.00
2023-03-10T21:25:28.493Z,81.90
2023-03-10T21:27:59.043Z,82.00
2023-03-10T21:30:29.478Z,81.90
2023-03-10T21:32:58.294Z,81.90
2023-03-10T21:35:28.564Z,82.10
2023-03-10T21:37:57.631Z,82.10
2023-03-10T21:40:25.234Z,81.90
2023-03-10T21:42:53.252Z,82.10
2023-03-10T21:45:24.808Z,82.10
2023-03-10T21:47:52.723Z,82.00
2023-03-10T21:50:20.821Z,82.00
2023-03-10T21:52:48.582Z,82.20
2023-03-10T21:55:23.274Z,82.10
2023-03-10T21:57:51.495Z,82.20
2023-03-10T22:00:23.399Z,82.20
2023-03-10T22:02:53.120Z,82.30
2023-03-10T22:05:21.546Z,82.30
2023-03-10T22:07:50.002Z,82.30
2023-03-10T22:10:18.676Z,82.20
2023-03-10T22:12:46.946Z,82.40
2023-03-10T22:15:21.207Z,82.30
2023-03-10T22:17:49.416Z,82.40
2023-03-10T22:20:21.008Z,82.50
2023-03-10T22:22:49.471Z,82.40
2023-03-10T22:25:17.820Z,82.40
2023-03-10T22:27:50.038Z,82.40
2023-03-10T22:30:18.122Z,82.40
2023-03-10T22:32:45.772Z,83.00
2023-03-10T22:35:13.477Z,82.40
2023-03-10T22:37:41.862Z,82.40
2023-03-10T22:40:14.202Z,82.40
2023-03-10T22:42:41.759Z,82.50
2023-03-10T22:45:19.901Z,82.60
2023-03-10T22:47:48.568Z,82.60
2023-03-10T22:50:28.300Z,82.60
2023-03-10T22:52:55.907Z,82.50
2023-03-10T22:55:25.330Z,82.60
2023-03-10T22:57:53.780Z,82.60
2023-03-10T23:00:22.888Z,82.60
2023-03-10T23:02:52.406Z,82.70
2023-03-10T23:05:21.288Z,82.60
2023-03-10T23:07:49.394Z,82.70
2023-03-10T23:10:23.428Z,82.70
2023-03-10T23:12:52.166Z,82.80
2023-03-10T23:15:25.803Z,82.70
2023-03-10T23:17:58.276Z,82.70
2023-03-10T23:20:28.847Z,82.80
2023-03-10T23:22:58.879Z,82.80
2023-03-10T23:25:33.382Z,82.70
2023-03-10T23:28:01.289Z,82.70
2023-03-10T23:30:30.225Z,82.80
2023-03-10T23:32:58.629Z,82.70
2023-03-10T23:35:29.945Z,82.80
2023-03-10T23:37:58.571Z,82.80
2023-03-10T23:40:27.651Z,82.80
2023-03-10T23:42:56.857Z,82.80
2023-03-10T23:45:27.046Z,82.80
2023-03-10T23:47:57.687Z,82.80
2023-03-10T23:50:34.373Z,83.00
2023-03-10T23:53:02.736Z,82.90
2023-03-10T23:55:33.690Z,82.90
2023-03-10T23:58:01.254Z,82.90
